Lyle, Minnesota
Current Conditions -  °F | °C
As of 11:15 AM on Friday 24 Oct 2014 (Local Time) from KAUM Reporting Station
Haze Haze  
Wind Chill: 54°   Ceiling: 400
Heat Index: 54°   Visibility: 2mi
Dew Point: 54°   Wind: 14mph
Humidity: 100%   Direction: 200°SSW
Pressure: 29.92"   Gusts: NA
Location:  43.51°N, 92.94°W
Report Text: KAUM 241615Z AUTO 20012KT 2SM BR OVC004 12/12 A2992 RMK AO2
Loading
Personal Weather Stations






























Interactive Weather Map
Tropical Storm Tracking
New forecast layout! Learn more

10-Day Weather Forecast

Advertisements
Track Severe Weather on mobile